Time;durP1;ratioP1;P1;durP2;ratioP2;P2;SDS_P1;SDS_P2;PMS_P1;PMS_P2;Temp;Humidity;BMP_temperature;BMP_pressure;BME280_temperature;BME280_humidity;BME280_pressure;Samples;Min_cycle;Max_cycle;Signal;HPM_P1;HPM_P2
2022/02/28 00:00:18;;;;;;;10.55;5.78;;;10.20;63.50;;;;;;5089117;28;20059;-79
2022/02/28 00:02:47;;;;;;;10.27;6.03;;;10.20;63.50;;;;;;5089363;28;20043;-77
2022/02/28 00:05:15;;;;;;;7.60;5.95;;;10.20;63.50;;;;;;5089111;28;20089;-80
2022/02/28 00:07:41;;;;;;;8.23;5.70;;;10.20;63.60;;;;;;5071184;28;20089;-80
2022/02/28 00:10:08;;;;;;;11.95;6.28;;;10.20;63.60;;;;;;5071208;28;20063;-80
2022/02/28 00:12:34;;;;;;;13.18;6.38;;;10.20;63.60;;;;;;5089116;28;20109;-81
2022/02/28 00:15:01;;;;;;;8.82;5.47;;;10.20;63.60;;;;;;5088970;28;20025;-79
2022/02/28 00:17:27;;;;;;;9.52;6.05;;;10.20;63.60;;;;;;5089217;28;20054;-79
2022/02/28 00:19:53;;;;;;;9.15;6.38;;;10.20;63.60;;;;;;5071078;28;20032;-80
2022/02/28 00:22:19;;;;;;;9.32;6.28;;;10.20;63.60;;;;;;5089219;28;20029;-80
2022/02/28 00:24:45;;;;;;;9.63;7.35;;;10.20;63.60;;;;;;5071096;28;20127;-80
2022/02/28 00:27:11;;;;;;;8.95;6.20;;;10.20;63.60;;;;;;5088916;28;20138;-80
2022/02/28 00:29:37;;;;;;;9.35;6.00;;;10.30;63.90;;;;;;5071097;28;20030;-80
2022/02/28 00:32:03;;;;;;;12.73;6.32;;;10.20;63.70;;;;;;5089010;28;20028;-80
2022/02/28 00:34:32;;;;;;;7.80;5.85;;;10.20;63.70;;;;;;5070471;28;20028;-79
2022/02/28 00:37:00;;;;;;;8.73;5.80;;;10.20;63.80;;;;;;5088801;28;20145;-80
2022/02/28 00:39:28;;;;;;;7.95;6.30;;;10.20;63.80;;;;;;5070536;28;20032;-80
2022/02/28 00:41:54;;;;;;;11.32;6.65;;;10.20;63.80;;;;;;5071031;28;20086;-80
2022/02/28 00:44:20;;;;;;;8.45;6.45;;;10.20;63.90;;;;;;5070491;28;20502;-80
2022/02/28 00:46:46;;;;;;;9.90;5.70;;;10.20;63.90;;;;;;5088083;28;20039;-80
2022/02/28 00:49:12;;;;;;;16.10;6.80;;;10.20;64.00;;;;;;5070138;28;20020;-80
2022/02/28 00:51:38;;;;;;;12.57;6.78;;;10.20;64.00;;;;;;5089205;28;20555;-80
2022/02/28 00:54:05;;;;;;;9.57;5.97;;;10.20;64.10;;;;;;5088496;28;20048;-80
2022/02/28 00:56:32;;;;;;;13.88;7.35;;;10.20;64.10;;;;;;5070505;28;20527;-80
2022/02/28 00:58:58;;;;;;;10.68;6.57;;;10.10;64.00;;;;;;5069387;28;20067;-80
2022/02/28 01:01:24;;;;;;;9.88;6.85;;;10.10;64.10;;;;;;5088179;28;20032;-80
2022/02/28 01:03:50;;;;;;;10.27;6.35;;;10.10;64.10;;;;;;5070084;28;20031;-80
2022/02/28 01:06:16;;;;;;;11.02;6.88;;;10.10;64.20;;;;;;5088018;28;20031;-80
2022/02/28 01:08:42;;;;;;;15.30;8.25;;;10.10;64.20;;;;;;5088122;28;20434;-81
2022/02/28 01:11:08;;;;;;;9.90;6.45;;;10.10;64.30;;;;;;5069904;28;20031;-80
2022/02/28 01:13:34;;;;;;;10.77;6.55;;;10.00;64.20;;;;;;5053763;28;20032;-80
2022/02/28 01:16:01;;;;;;;8.52;6.22;;;10.00;64.20;;;;;;5068944;28;20028;-80
2022/02/28 01:18:27;;;;;;;9.55;5.82;;;10.00;64.80;;;;;;5037980;28;20458;-80
2022/02/28 01:20:53;;;;;;;9.88;6.43;;;10.00;64.30;;;;;;5070085;28;20024;-80
2022/02/28 01:23:19;;;;;;;15.13;7.45;;;10.00;64.30;;;;;;5087890;28;20390;-80
2022/02/28 01:25:46;;;;;;;9.05;6.95;;;10.00;64.40;;;;;;5088153;28;20028;-80
2022/02/28 01:28:12;;;;;;;11.55;6.47;;;10.00;64.40;;;;;;5070094;28;20039;-80
2022/02/28 01:30:39;;;;;;;11.35;5.85;;;9.90;64.30;;;;;;5088177;28;20032;-80
2022/02/28 01:33:05;;;;;;;10.23;5.70;;;9.90;64.30;;;;;;5070031;28;20475;-79
2022/02/28 01:35:32;;;;;;;11.43;6.70;;;10.00;64.50;;;;;;5069598;28;20032;-79
2022/02/28 01:37:58;;;;;;;11.10;6.90;;;9.90;64.40;;;;;;5087595;28;20040;-80
2022/02/28 01:40:25;;;;;;;13.15;5.90;;;10.00;64.60;;;;;;5069950;28;20021;-80
2022/02/28 01:42:52;;;;;;;11.65;6.32;;;9.90;64.50;;;;;;5088372;28;20395;-79
2022/02/28 01:45:22;;;;;;;8.68;6.05;;;9.90;64.50;;;;;;5070396;28;20020;-79
2022/02/28 01:47:53;;;;;;;10.00;6.03;;;9.90;64.60;;;;;;5087730;28;20462;-78
2022/02/28 01:50:20;;;;;;;11.73;6.00;;;9.90;64.60;;;;;;5069559;28;20442;-78
2022/02/28 01:52:48;;;;;;;9.75;5.60;;;9.90;64.70;;;;;;5069583;28;20047;-78
2022/02/28 01:55:17;;;;;;;11.82;7.03;;;9.90;64.70;;;;;;5052772;28;20031;-79
2022/02/28 01:57:43;;;;;;;10.25;6.05;;;9.90;64.80;;;;;;5069788;28;20115;-80
2022/02/28 02:00:14;;;;;;;11.35;7.28;;;9.90;64.80;;;;;;5069254;28;20032;-78
2022/02/28 02:02:42;;;;;;;11.10;6.53;;;9.90;64.80;;;;;;5087464;28;20053;-78
2022/02/28 02:05:08;;;;;;;10.82;6.15;;;9.80;64.70;;;;;;5086845;28;20479;-78
2022/02/28 02:07:35;;;;;;;12.80;6.60;;;9.90;64.90;;;;;;5069448;28;20077;-79
2022/02/28 02:10:05;;;;;;;11.20;5.20;;;9.90;64.90;;;;;;5068871;28;20027;-77
2022/02/28 02:12:31;;;;;;;10.85;5.68;;;9.90;65.00;;;;;;5052214;28;20479;-79
2022/02/28 02:14:59;;;;;;;9.50;6.18;;;9.90;64.90;;;;;;5069341;28;20556;-78
2022/02/28 02:17:25;;;;;;;8.07;5.57;;;9.90;64.90;;;;;;5054661;28;20498;-79
2022/02/28 02:19:54;;;;;;;11.38;6.15;;;9.90;65.00;;;;;;5089477;28;20020;-79
2022/02/28 02:22:22;;;;;;;10.30;5.13;;;9.90;65.00;;;;;;5070468;28;20028;-78
2022/02/28 02:24:49;;;;;;;8.88;5.20;;;9.90;65.00;;;;;;5069875;28;20035;-80
2022/02/28 02:27:16;;;;;;;9.30;5.00;;;9.90;65.00;;;;;;5087194;28;20116;-80
2022/02/28 02:29:42;;;;;;;11.30;6.30;;;9.90;65.00;;;;;;5052693;28;20081;-80
2022/02/28 02:32:10;;;;;;;9.50;5.30;;;10.00;65.20;;;;;;5069182;28;20039;-79
2022/02/28 02:34:37;;;;;;;10.73;5.68;;;10.00;65.20;;;;;;5069323;28;20499;-81
2022/02/28 02:37:04;;;;;;;6.53;4.80;;;10.00;65.30;;;;;;5069462;28;20537;-81
2022/02/28 02:39:30;;;;;;;11.93;5.45;;;9.90;65.10;;;;;;5086901;28;20540;-79
2022/02/28 02:41:57;;;;;;;7.50;4.95;;;10.00;65.30;;;;;;5069592;28;20032;-79
2022/02/28 02:44:33;;;;;;;7.80;4.65;;;9.90;65.20;;;;;;5068811;28;20485;-79
2022/02/28 02:47:00;;;;;;;10.35;5.47;;;10.00;65.40;;;;;;5069352;28;20098;-78
2022/02/28 02:49:35;;;;;;;9.82;5.13;;;9.90;65.20;;;;;;5072473;28;20068;-82
2022/02/28 02:52:02;;;;;;;8.07;5.13;;;10.00;65.40;;;;;;5055969;28;20173;-78
2022/02/28 02:54:32;;;;;;;12.07;5.35;;;9.90;65.30;;;;;;5072328;28;20035;-81
2022/02/28 02:56:59;;;;;;;10.13;5.35;;;9.90;65.30;;;;;;5055442;28;20028;-78
2022/02/28 02:59:25;;;;;;;8.30;4.70;;;9.90;65.30;;;;;;5072111;28;20024;-80
2022/02/28 03:01:52;;;;;;;9.05;5.53;;;10.00;65.50;;;;;;5055585;28;20387;-80
2022/02/28 03:04:18;;;;;;;10.80;4.97;;;10.00;65.60;;;;;;5089627;28;20036;-80
2022/02/28 03:06:45;;;;;;;8.98;5.18;;;10.00;65.50;;;;;;5072092;28;20036;-80
2022/02/28 03:09:15;;;;;;;9.13;5.38;;;10.00;65.50;;;;;;5055673;28;20039;-80
2022/02/28 03:11:43;;;;;;;8.63;5.68;;;10.00;65.60;;;;;;5055695;28;20056;-81
2022/02/28 03:14:10;;;;;;;7.15;5.50;;;10.00;65.50;;;;;;5072016;28;20058;-80
2022/02/28 03:16:38;;;;;;;7.18;4.85;;;10.00;65.50;;;;;;5072153;28;20031;-80
2022/02/28 03:19:05;;;;;;;9.20;4.88;;;10.00;65.60;;;;;;5071993;28;20024;-81
2022/02/28 03:21:40;;;;;;;8.15;4.82;;;10.10;65.70;;;;;;5074069;28;20028;-80
2022/02/28 03:24:06;;;;;;;6.65;4.43;;;10.10;65.80;;;;;;5075687;28;20035;-80
2022/02/28 03:26:34;;;;;;;7.50;4.75;;;10.10;65.80;;;;;;5075600;28;20020;-78
2022/02/28 03:29:00;;;;;;;8.65;4.65;;;10.00;65.60;;;;;;5075570;28;20062;-79
2022/02/28 03:31:26;;;;;;;7.53;4.93;;;10.00;65.60;;;;;;5075262;28;20093;-79
2022/02/28 03:33:52;;;;;;;10.15;4.75;;;10.00;65.70;;;;;;5058596;28;20666;-78
2022/02/28 03:36:19;;;;;;;4.85;4.32;;;10.00;65.70;;;;;;5075285;28;20044;-79
2022/02/28 03:38:49;;;;;;;8.77;3.88;;;10.00;65.70;;;;;;5059560;28;20107;-78
2022/02/28 03:41:15;;;;;;;10.45;3.80;;;10.10;65.90;;;;;;5093173;28;20139;-78
2022/02/28 03:43:42;;;;;;;6.00;3.67;;;10.00;65.70;;;;;;5075263;28;20020;-79
2022/02/28 03:46:13;;;;;;;8.45;4.53;;;10.00;65.70;;;;;;5074906;28;20119;-78
2022/02/28 03:48:59;;;;;;;7.95;4.38;;;10.10;65.90;;;;;;5061227;28;20044;-79
2022/02/28 03:51:38;;;;;;;6.90;4.63;;;10.00;65.70;;;;;;5075096;28;20028;-79
2022/02/28 03:54:11;;;;;;;7.10;3.78;;;10.10;66.00;;;;;;5075115;28;20111;-78
2022/02/28 03:56:43;;;;;;;7.28;3.90;;;10.10;66.00;;;;;;5075177;28;20096;-80
2022/02/28 03:59:11;;;;;;;7.37;3.87;;;10.10;66.00;;;;;;5075036;28;20033;-79
2022/02/28 04:01:37;;;;;;;5.53;3.58;;;10.10;65.90;;;;;;5058571;28;20261;-80
2022/02/28 04:04:08;;;;;;;8.43;3.75;;;10.10;66.00;;;;;;5074599;28;20028;-80
2022/02/28 04:06:36;;;;;;;5.07;3.53;;;10.10;66.00;;;;;;5058381;28;20035;-79
2022/02/28 04:09:04;;;;;;;5.68;3.50;;;10.10;65.90;;;;;;5074607;28;20040;-80
2022/02/28 04:11:33;;;;;;;5.25;3.28;;;10.10;65.90;;;;;;5058476;28;20047;-79
2022/02/28 04:14:01;;;;;;;6.50;3.05;;;10.20;66.10;;;;;;5058075;28;20085;-79
2022/02/28 04:16:27;;;;;;;7.18;3.58;;;10.20;66.10;;;;;;5057893;28;20035;-79
2022/02/28 04:19:14;;;;;;;5.20;3.17;;;10.20;66.10;;;;;;5092614;28;20036;-79
2022/02/28 04:21:48;;;;;;;5.57;2.88;;;10.20;66.10;;;;;;5074693;28;20432;-79
2022/02/28 04:24:15;;;;;;;8.00;3.38;;;10.20;66.10;;;;;;5074403;28;20020;-80
2022/02/28 04:26:44;;;;;;;4.43;3.17;;;10.20;66.10;;;;;;5074807;28;20034;-80
2022/02/28 04:29:14;;;;;;;7.07;3.63;;;10.20;66.20;;;;;;5074330;28;20024;-80
2022/02/28 04:31:43;;;;;;;4.65;3.00;;;10.20;66.10;;;;;;5074795;28;20028;-79
2022/02/28 04:34:11;;;;;;;9.48;3.15;;;10.20;66.10;;;;;;5057624;28;20421;-79
2022/02/28 04:36:37;;;;;;;6.47;3.30;;;10.20;66.20;;;;;;5075411;28;20081;-79
2022/02/28 04:39:04;;;;;;;7.40;2.67;;;10.20;66.20;;;;;;5058377;28;20081;-79
2022/02/28 04:41:31;;;;;;;5.25;2.70;;;10.20;66.20;;;;;;5074294;28;20031;-80
2022/02/28 04:43:57;;;;;;;4.82;2.95;;;10.20;66.20;;;;;;5057832;28;20092;-79
2022/02/28 04:46:26;;;;;;;3.75;2.50;;;10.20;66.20;;;;;;5074049;28;20024;-79
2022/02/28 04:48:54;;;;;;;3.63;2.42;;;10.20;66.20;;;;;;5073537;28;20052;-79
2022/02/28 04:51:33;;;;;;;8.13;2.78;;;10.20;66.20;;;;;;5074029;28;20024;-79
2022/02/28 04:54:01;;;;;;;5.63;2.60;;;10.20;66.20;;;;;;5073596;28;20024;-79
2022/02/28 04:56:27;;;;;;;4.50;2.58;;;10.20;66.20;;;;;;5073732;28;20426;-79
2022/02/28 04:58:53;;;;;;;3.97;2.58;;;10.20;66.20;;;;;;5073756;28;20067;-80
2022/02/28 05:01:38;;;;;;;4.32;2.25;;;10.20;66.20;;;;;;5073920;28;20108;-80
2022/02/28 05:04:18;;;;;;;3.45;2.00;;;10.20;66.20;;;;;;5058911;28;20114;-80
2022/02/28 05:06:44;;;;;;;6.38;2.75;;;10.30;66.40;;;;;;5091931;28;20036;-80
2022/02/28 05:09:12;;;;;;;3.55;2.33;;;10.30;66.40;;;;;;5059384;28;20163;-79
2022/02/28 05:11:38;;;;;;;5.57;2.35;;;10.30;66.40;;;;;;5076083;28;20032;-78
2022/02/28 05:14:04;;;;;;;6.28;2.67;;;10.30;66.40;;;;;;5075697;28;20088;-79
2022/02/28 05:16:31;;;;;;;4.10;2.00;;;10.30;66.40;;;;;;5074137;28;20028;-78
2022/02/28 05:18:57;;;;;;;4.65;2.05;;;10.30;66.40;;;;;;5073903;28;20035;-78
2022/02/28 05:21:23;;;;;;;3.30;1.95;;;10.30;66.40;;;;;;5073415;28;20126;-78
2022/02/28 05:23:50;;;;;;;4.35;2.25;;;10.30;66.40;;;;;;5073662;28;20465;-79
2022/02/28 05:26:17;;;;;;;6.35;2.03;;;10.30;66.50;;;;;;5073489;28;20399;-79
2022/02/28 05:28:43;;;;;;;5.15;2.05;;;10.30;66.50;;;;;;5091318;28;20040;-80
2022/02/28 05:31:11;;;;;;;3.40;1.90;;;10.30;66.50;;;;;;5073087;28;20077;-80
2022/02/28 05:33:37;;;;;;;4.10;1.80;;;10.20;66.40;;;;;;5072780;28;20059;-80
2022/02/28 05:36:04;;;;;;;4.15;1.90;;;10.30;66.60;;;;;;5073326;28;20021;-80
2022/02/28 05:38:48;;;;;;;3.97;1.85;;;10.30;66.60;;;;;;5073134;28;20063;-80
2022/02/28 05:41:17;;;;;;;5.43;2.30;;;10.30;66.60;;;;;;5057077;28;20097;-81
2022/02/28 05:43:52;;;;;;;4.43;2.00;;;10.30;66.60;;;;;;5072837;28;20020;-80
2022/02/28 05:46:19;;;;;;;2.78;1.60;;;10.30;66.60;;;;;;5072989;28;20027;-80
2022/02/28 05:49:02;;;;;;;6.85;2.13;;;10.20;66.50;;;;;;5064661;28;20036;-80
2022/02/28 05:51:32;;;;;;;5.30;2.00;;;10.30;66.60;;;;;;5049443;28;20032;-80
2022/02/28 05:53:59;;;;;;;7.43;2.35;;;10.30;66.60;;;;;;5049543;28;20078;-81
2022/02/28 05:56:25;;;;;;;5.18;1.52;;;10.30;66.60;;;;;;5074860;28;20028;-79
2022/02/28 05:58:51;;;;;;;2.10;1.50;;;10.30;66.60;;;;;;5083084;28;20051;-80
2022/02/28 06:01:17;;;;;;;5.45;2.33;;;10.30;66.60;;;;;;5069619;28;20115;-79
2022/02/28 06:03:43;;;;;;;3.15;1.98;;;10.30;66.60;;;;;;5081885;28;20107;-80
2022/02/28 06:06:09;;;;;;;3.42;1.80;;;10.30;66.60;;;;;;5075376;28;20448;-80
2022/02/28 06:08:35;;;;;;;4.03;2.25;;;10.30;66.60;;;;;;5065812;28;20040;-80
2022/02/28 06:11:01;;;;;;;5.07;2.55;;;10.30;66.60;;;;;;5076860;28;20111;-79
2022/02/28 06:13:27;;;;;;;3.40;1.90;;;10.30;66.60;;;;;;5066499;28;20115;-79
2022/02/28 06:15:53;;;;;;;3.17;1.60;;;10.30;66.60;;;;;;5078186;28;20127;-77
2022/02/28 06:18:19;;;;;;;4.53;2.10;;;10.30;66.60;;;;;;5060763;28;20439;-75
2022/02/28 06:20:45;;;;;;;4.18;1.80;;;10.30;66.60;;;;;;5058916;28;20060;-78
2022/02/28 06:23:14;;;;;;;5.05;2.05;;;10.40;66.90;;;;;;5086978;28;20035;-78
2022/02/28 06:25:42;;;;;;;4.75;1.42;;;10.40;66.90;;;;;;5087707;28;20025;-79
2022/02/28 06:28:08;;;;;;;7.03;1.42;;;10.30;66.70;;;;;;5080047;28;20059;-80
2022/02/28 06:30:34;;;;;;;2.80;1.33;;;10.30;66.70;;;;;;5049196;28;20092;-86
2022/02/28 06:33:01;;;;;;;4.03;1.38;;;10.30;66.70;;;;;;5050731;28;20047;-84
2022/02/28 06:35:27;;;;;;;3.35;1.40;;;10.40;66.90;;;;;;5051714;28;20216;-81
2022/02/28 06:37:54;;;;;;;5.15;1.80;;;10.40;66.90;;;;;;5074879;28;20028;-81
2022/02/28 06:40:20;;;;;;;3.55;1.33;;;10.40;67.00;;;;;;5052227;28;20483;-79
2022/02/28 06:42:46;;;;;;;3.13;1.98;;;10.40;67.10;;;;;;5045987;28;20802;-78
2022/02/28 06:45:12;;;;;;;4.75;1.55;;;10.40;67.10;;;;;;5085841;28;20063;-79
2022/02/28 06:47:38;;;;;;;7.03;1.58;;;10.50;67.30;;;;;;5068949;28;20102;-79
2022/02/28 06:50:05;;;;;;;7.88;1.70;;;10.40;67.10;;;;;;5081761;28;20114;-78
2022/02/28 06:52:31;;;;;;;3.33;1.35;;;10.50;67.30;;;;;;5076946;28;20047;-78
2022/02/28 06:54:57;;;;;;;4.35;1.25;;;10.50;67.80;;;;;;5053064;28;20028;-77
2022/02/28 06:57:24;;;;;;;5.82;1.58;;;10.50;67.30;;;;;;5081855;28;20039;-78
2022/02/28 06:59:51;;;;;;;5.78;1.70;;;10.60;67.50;;;;;;5077110;28;20122;-78
2022/02/28 07:02:18;;;;;;;3.88;1.50;;;10.50;67.30;;;;;;5069595;28;20028;-78
2022/02/28 07:04:45;;;;;;;2.72;1.50;;;10.50;67.30;;;;;;5090346;28;20491;-79
2022/02/28 07:07:16;;;;;;;5.07;1.42;;;10.50;67.30;;;;;;5077956;28;20123;-79
2022/02/28 07:09:45;;;;;;;4.72;1.40;;;10.50;67.30;;;;;;5064955;28;20058;-78
2022/02/28 07:12:12;;;;;;;2.55;1.45;;;10.50;67.30;;;;;;5072589;28;20028;-78
2022/02/28 07:14:39;;;;;;;6.72;1.98;;;10.60;67.50;;;;;;5078510;28;20040;-79
2022/02/28 07:17:05;;;;;;;6.80;1.60;;;10.50;67.40;;;;;;5092417;28;20035;-81
2022/02/28 07:19:33;;;;;;;4.35;1.85;;;10.60;67.50;;;;;;5057655;28;20028;-79
2022/02/28 07:21:59;;;;;;;7.32;2.63;;;10.60;67.60;;;;;;5072883;28;20039;-85
2022/02/28 07:24:26;;;;;;;5.53;1.63;;;10.60;67.60;;;;;;5058223;28;20032;-78
2022/02/28 07:26:52;;;;;;;5.25;1.52;;;10.60;67.60;;;;;;5070965;28;20066;-81
2022/02/28 07:29:18;;;;;;;3.10;1.40;;;10.60;67.60;;;;;;5075254;28;20071;-80
2022/02/28 07:31:46;;;;;;;8.25;1.90;;;10.60;67.70;;;;;;5078517;28;20476;-85
2022/02/28 07:34:12;;;;;;;4.80;1.40;;;10.70;68.60;;;;;;5062053;28;20093;-84
2022/02/28 07:36:41;;;;;;;7.28;1.45;;;10.80;69.10;;;;;;5067456;28;20056;-81
2022/02/28 07:39:07;;;;;;;5.63;1.55;;;10.80;69.30;;;;;;5052560;28;20479;-82
2022/02/28 07:41:33;;;;;;;3.92;1.60;;;10.90;69.50;;;;;;5093481;28;20035;-82
2022/02/28 07:43:59;;;;;;;4.32;1.40;;;11.00;69.70;;;;;;5090618;28;20028;-80
2022/02/28 07:46:25;;;;;;;4.32;1.50;;;11.00;69.70;;;;;;5070177;28;20320;-81
2022/02/28 07:48:51;;;;;;;3.78;1.40;;;11.00;69.70;;;;;;5087794;28;20093;-81
2022/02/28 07:51:17;;;;;;;3.78;1.27;;;11.00;69.70;;;;;;5070570;28;20432;-83
2022/02/28 07:53:43;;;;;;;4.18;1.40;;;11.00;69.70;;;;;;5070807;28;20596;-79
2022/02/28 07:56:09;;;;;;;4.65;1.20;;;11.10;69.90;;;;;;5087456;28;20350;-83
2022/02/28 07:58:35;;;;;;;4.20;1.60;;;11.10;69.80;;;;;;5077879;28;20037;-85
2022/02/28 08:01:01;;;;;;;3.30;1.50;;;11.20;70.00;;;;;;5068977;28;20457;-80
2022/02/28 08:03:28;;;;;;;4.50;1.10;;;11.20;69.90;;;;;;5070343;28;20061;-80
2022/02/28 08:05:54;;;;;;;5.68;1.38;;;11.20;69.90;;;;;;5078875;28;20035;-81
2022/02/28 08:08:20;;;;;;;6.68;1.63;;;11.20;69.80;;;;;;5066015;28;20044;-79
2022/02/28 08:10:46;;;;;;;5.82;1.48;;;11.20;69.80;;;;;;5080082;28;20031;-81
2022/02/28 08:13:14;;;;;;;4.55;1.38;;;11.30;69.90;;;;;;5091906;28;20152;-80
2022/02/28 08:15:40;;;;;;;4.82;1.48;;;11.30;69.80;;;;;;5073390;28;20651;-80
2022/02/28 08:18:07;;;;;;;5.78;2.17;;;11.30;69.70;;;;;;5089958;28;20044;-80
2022/02/28 08:20:34;;;;;;;3.88;1.50;;;11.40;69.80;;;;;;5090095;28;20024;-80
2022/02/28 08:23:01;;;;;;;2.70;1.42;;;11.40;69.70;;;;;;5090660;28;20034;-94
2022/02/28 08:25:27;;;;;;;5.15;1.10;;;11.40;69.60;;;;;;5078967;28;20081;-94
2022/02/28 08:27:54;;;;;;;4.15;1.25;;;11.50;69.70;;;;;;5075531;28;20036;-93
2022/02/28 08:30:20;;;;;;;6.05;1.55;;;11.50;69.60;;;;;;5060263;28;20080;-91
2022/02/28 08:32:46;;;;;;;5.38;1.35;;;11.50;69.50;;;;;;5092030;28;20081;-91
2022/02/28 08:35:12;;;;;;;3.95;1.92;;;11.60;69.60;;;;;;5059908;28;20048;-94
2022/02/28 08:37:39;;;;;;;4.97;1.50;;;11.60;69.50;;;;;;5055187;28;20040;-88
2022/02/28 08:40:06;;;;;;;5.72;1.70;;;11.60;69.40;;;;;;5053069;28;20064;-92
2022/02/28 08:42:33;;;;;;;4.30;1.33;;;11.70;69.50;;;;;;5053326;28;20042;-84
2022/02/28 08:45:01;;;;;;;5.63;1.00;;;11.70;69.40;;;;;;5054061;28;20020;-83
2022/02/28 08:47:28;;;;;;;6.80;1.58;;;11.70;69.40;;;;;;5050835;28;20127;-77
2022/02/28 08:49:54;;;;;;;6.00;2.42;;;11.70;69.30;;;;;;5069062;28;20105;-77
2022/02/28 08:52:20;;;;;;;4.97;1.50;;;11.80;69.50;;;;;;5067871;28;20028;-79
2022/02/28 08:54:46;;;;;;;5.10;1.65;;;11.80;69.40;;;;;;5068130;28;20085;-78
2022/02/28 08:57:12;;;;;;;3.55;1.30;;;11.90;69.50;;;;;;5068834;28;20055;-80
2022/02/28 08:59:38;;;;;;;5.30;1.58;;;11.90;69.40;;;;;;5068663;28;20033;-79
2022/02/28 09:02:04;;;;;;;5.63;1.10;;;12.00;69.50;;;;;;5069137;28;20036;-79
2022/02/28 09:04:31;;;;;;;7.30;1.60;;;12.00;69.40;;;;;;5068418;28;20063;-81
2022/02/28 09:07:00;;;;;;;6.70;1.50;;;12.10;69.40;;;;;;5050603;28;20081;-79
2022/02/28 09:09:27;;;;;;;4.75;1.85;;;12.10;69.30;;;;;;5068281;28;20051;-79
2022/02/28 09:11:53;;;;;;;6.20;1.33;;;12.20;69.40;;;;;;5068429;28;20479;-78
2022/02/28 09:14:20;;;;;;;3.08;1.23;;;12.20;69.30;;;;;;5072534;28;20103;-79
2022/02/28 09:16:46;;;;;;;5.25;1.40;;;12.20;69.20;;;;;;5071531;28;20031;-78
2022/02/28 09:19:15;;;;;;;4.13;1.33;;;12.30;69.40;;;;;;5087356;28;20024;-81
2022/02/28 09:21:41;;;;;;;4.70;1.38;;;12.30;69.20;;;;;;5070461;28;20444;-92
2022/02/28 09:24:07;;;;;;;3.63;1.30;;;12.40;69.30;;;;;;5088723;28;20399;-85
2022/02/28 09:26:33;;;;;;;6.50;1.98;;;12.50;69.40;;;;;;5088827;28;20491;-85
2022/02/28 09:28:59;;;;;;;3.90;1.20;;;12.50;69.20;;;;;;5075397;28;20139;-89
2022/02/28 09:31:26;;;;;;;3.97;1.40;;;12.60;69.20;;;;;;5068098;28;20111;-86
2022/02/28 09:33:52;;;;;;;5.20;1.40;;;12.60;69.10;;;;;;5068052;28;20078;-85
2022/02/28 09:36:18;;;;;;;6.65;1.63;;;12.70;69.20;;;;;;5050500;28;20033;-85
2022/02/28 09:38:44;;;;;;;6.97;1.15;;;12.80;69.70;;;;;;5069880;28;20031;-85
2022/02/28 09:41:11;;;;;;;6.32;1.48;;;12.80;69.10;;;;;;5070322;28;20035;-85
2022/02/28 09:43:43;;;;;;;5.72;2.03;;;12.80;68.90;;;;;;5088317;28;20558;-85
2022/02/28 09:46:33;;;;;;;6.07;1.50;;;13.00;69.20;;;;;;5068972;28;20039;-84
2022/02/28 09:49:18;;;;;;;5.82;1.88;;;13.10;69.20;;;;;;5088445;28;20040;-83
2022/02/28 09:52:14;;;;;;;3.45;1.73;;;13.10;69.00;;;;;;4997551;28;20114;-83
2022/02/28 09:54:55;;;;;;;3.35;1.23;;;13.30;69.20;;;;;;5087401;28;20024;-88
2022/02/28 09:57:48;;;;;;;5.97;1.50;;;13.40;69.10;;;;;;5047038;28;20044;-83
2022/02/28 10:00:23;;;;;;;5.93;2.00;;;13.50;69.00;;;;;;5049216;28;20551;-89
2022/02/28 10:02:56;;;;;;;5.60;1.60;;;13.70;69.10;;;;;;5061884;28;20083;-87
2022/02/28 10:05:25;;;;;;;4.32;1.45;;;13.80;68.90;;;;;;5050480;28;20343;-84
2022/02/28 10:08:06;;;;;;;6.45;2.28;;;13.90;68.90;;;;;;5087559;28;20402;-86
2022/02/28 10:10:34;;;;;;;7.25;1.70;;;14.00;68.80;;;;;;5069652;28;20024;-82
2022/02/28 10:13:02;;;;;;;6.32;2.28;;;14.10;68.80;;;;;;5069685;28;20130;-84
2022/02/28 10:15:28;;;;;;;4.75;1.60;;;14.10;68.70;;;;;;5069732;28;20060;-84
2022/02/28 10:18:01;;;;;;;5.60;1.50;;;14.20;68.80;;;;;;5069834;28;20487;-86
2022/02/28 10:20:29;;;;;;;;;;;14.20;68.70;;;;;;5070216;28;20031;-85
2022/02/28 10:23:03;;;;;;;3.92;1.15;;;14.20;68.60;;;;;;5070594;28;20371;-84
2022/02/28 10:25:44;;;;;;;5.63;1.52;;;14.20;68.60;;;;;;5053740;28;20026;-82
2022/02/28 10:28:30;;;;;;;5.35;1.85;;;14.30;68.70;;;;;;5087490;28;20042;-87
2022/02/28 10:31:06;;;;;;;5.22;1.58;;;14.30;68.70;;;;;;5089273;28;20609;-85
2022/02/28 10:33:51;;;;;;;5.70;1.92;;;14.30;68.70;;;;;;5092934;28;20031;-80
2022/02/28 10:36:36;;;;;;;3.72;1.17;;;14.30;68.60;;;;;;5091642;28;20494;-79
2022/02/28 10:39:10;;;;;;;5.32;1.67;;;14.40;68.60;;;;;;5092581;28;20119;-83
2022/02/28 10:41:43;;;;;;;5.07;1.65;;;14.40;68.60;;;;;;5074093;28;20024;-81
2022/02/28 10:44:13;;;;;;;5.78;2.08;;;14.50;68.60;;;;;;5074094;28;20032;-82
2022/02/28 10:46:47;;;;;;;4.80;1.10;;;14.50;68.50;;;;;;5091569;28;20127;-83
2022/02/28 10:49:19;;;;;;;6.45;1.33;;;14.50;68.40;;;;;;5091584;28;20040;-83
2022/02/28 10:51:51;;;;;;;7.03;1.50;;;14.50;68.30;;;;;;5073294;28;20262;-84
2022/02/28 10:54:28;;;;;;;4.80;1.58;;;14.50;68.30;;;;;;5091359;28;20395;-83
2022/02/28 10:57:03;;;;;;;4.80;1.20;;;14.60;68.40;;;;;;5073118;28;20192;-83
2022/02/28 10:59:31;;;;;;;4.68;1.38;;;14.60;68.40;;;;;;5091462;28;20085;-82
2022/02/28 11:01:57;;;;;;;3.55;1.02;;;14.60;68.40;;;;;;5091112;28;20062;-84
2022/02/28 11:04:36;;;;;;;5.15;1.50;;;14.60;68.30;;;;;;5056728;28;20028;-85
2022/02/28 11:07:04;;;;;;;6.15;1.60;;;14.60;68.30;;;;;;5090719;28;20053;-83
2022/02/28 11:09:38;;;;;;;5.57;1.50;;;14.70;68.40;;;;;;5072601;28;20036;-83
2022/02/28 11:12:30;;;;;;;7.53;2.08;;;14.70;68.30;;;;;;5073718;28;20093;-88
2022/02/28 11:15:03;;;;;;;5.63;1.48;;;14.80;68.30;;;;;;5090994;28;20032;-85
2022/02/28 11:17:32;;;;;;;7.18;2.35;;;14.80;68.20;;;;;;5091402;28;20062;-87
2022/02/28 11:20:00;;;;;;;7.50;1.95;;;14.90;68.20;;;;;;5072552;28;20408;-87
2022/02/28 11:22:28;;;;;;;6.07;1.70;;;14.90;68.00;;;;;;5073303;28;20376;-85
2022/02/28 11:24:55;;;;;;;6.88;2.17;;;15.00;68.20;;;;;;5072681;28;20091;-85
2022/02/28 11:27:22;;;;;;;4.40;1.50;;;15.00;68.10;;;;;;5071947;28;20037;-84
2022/02/28 11:29:58;;;;;;;3.75;1.83;;;15.00;68.00;;;;;;5072165;28;20060;-83
2022/02/28 11:32:26;;;;;;;5.50;1.38;;;15.00;68.00;;;;;;5053536;28;20028;-81
2022/02/28 11:34:55;;;;;;;4.65;1.25;;;15.00;68.00;;;;;;5070878;28;20503;-82
2022/02/28 11:37:26;;;;;;;5.13;1.98;;;14.90;67.80;;;;;;5070858;28;20036;-82
2022/02/28 11:40:02;;;;;;;6.07;1.95;;;15.00;68.00;;;;;;5052265;28;20025;-81
2022/02/28 11:43:06;;;;;;;3.08;1.50;;;14.90;67.80;;;;;;5069917;28;20033;-81
2022/02/28 11:45:32;;;;;;;;;;;15.00;67.90;;;;;;5072328;28;20037;-84
2022/02/28 11:48:22;;;;;;;5.65;1.20;;;15.00;68.00;;;;;;5089914;28;19926;-84
2022/02/28 11:50:56;;;;;;;4.28;1.48;;;15.00;68.00;;;;;;5089192;28;20027;-84
2022/02/28 11:53:42;;;;;;;4.63;1.40;;;14.90;67.90;;;;;;5071882;28;20067;-87
2022/02/28 11:56:34;;;;;;;3.13;1.38;;;14.90;68.00;;;;;;5090046;28;20078;-87
2022/02/28 11:59:05;;;;;;;4.68;1.58;;;15.00;68.30;;;;;;5090037;28;20119;-86
2022/02/28 12:01:41;;;;;;;4.15;1.48;;;15.00;68.30;;;;;;5089445;28;20035;-82
2022/02/28 12:04:11;;;;;;;4.57;1.15;;;14.90;68.10;;;;;;5089695;28;20501;-76
2022/02/28 12:06:59;;;;;;;3.63;1.33;;;14.90;68.10;;;;;;5090049;28;20265;-86
2022/02/28 12:09:36;;;;;;;7.90;2.55;;;14.80;68.00;;;;;;5089616;28;20040;-82
2022/02/28 12:12:31;;;;;;;4.97;1.23;;;14.80;68.10;;;;;;5055454;28;20312;-84
2022/02/28 12:14:59;;;;;;;4.97;1.58;;;14.70;68.00;;;;;;5071914;28;20583;-85
2022/02/28 12:17:40;;;;;;;4.78;1.58;;;14.60;68.10;;;;;;5072291;28;20073;-85
2022/02/28 12:20:13;;;;;;;4.30;1.45;;;14.50;68.00;;;;;;5072725;28;20487;-87
2022/02/28 12:23:09;;;;;;;6.32;1.17;;;14.50;68.60;;;;;;5089707;28;20032;-80
2022/02/28 12:25:58;;;;;;;5.63;1.88;;;14.40;68.10;;;;;;5054377;28;20403;-82
2022/02/28 12:28:40;;;;;;;2.80;1.17;;;14.30;68.00;;;;;;5070707;28;20051;-82
2022/02/28 12:31:36;;;;;;;3.70;1.47;;;14.30;68.10;;;;;;5089064;28;20028;-81
2022/02/28 12:34:06;;;;;;;4.18;1.50;;;14.20;68.00;;;;;;5053774;28;20032;-82
2022/02/28 12:36:33;;;;;;;5.07;1.27;;;14.20;68.10;;;;;;5054533;28;20028;-81
2022/02/28 12:39:06;;;;;;;6.80;1.30;;;14.20;68.20;;;;;;5089056;28;20055;-82
2022/02/28 12:41:36;;;;;;;4.68;1.17;;;14.20;68.20;;;;;;5071052;28;20028;-81
2022/02/28 12:44:04;;;;;;;2.70;1.00;;;14.10;68.10;;;;;;5089415;28;20028;-80
2022/02/28 12:46:42;;;;;;;5.10;1.95;;;14.10;68.20;;;;;;5088564;28;20028;-80
2022/02/28 12:49:10;;;;;;;2.85;1.42;;;14.10;68.50;;;;;;5083162;28;20432;-78
2022/02/28 12:51:37;;;;;;;5.93;1.52;;;14.10;68.50;;;;;;5079190;28;20473;-80
2022/02/28 12:54:03;;;;;;;9.07;2.25;;;14.20;68.70;;;;;;5067997;28;20039;-83
2022/02/28 12:56:29;;;;;;;2.63;1.10;;;14.20;68.70;;;;;;5050564;28;20029;-83
2022/02/28 12:58:56;;;;;;;7.13;1.30;;;14.10;68.60;;;;;;5068464;28;20032;-80